sensor_id;sensor_type;location;lat;lon;timestamp;pressure;altitude;pressure_sealevel;temperature;humidity
4570;BME280;2297;51.442;6.996;2023-07-02T00:00:03;99456.47;;;17.68;62.01
4570;BME280;2297;51.442;6.996;2023-07-02T00:02:32;99456.50;;;17.81;61.31
4570;BME280;2297;51.442;6.996;2023-07-02T00:04:58;99458.66;;;17.75;61.44
4570;BME280;2297;51.442;6.996;2023-07-02T00:07:25;99459.28;;;17.65;61.69
4570;BME280;2297;51.442;6.996;2023-07-02T00:09:52;99464.38;;;17.69;61.36
4570;BME280;2297;51.442;6.996;2023-07-02T00:12:18;99465.31;;;17.68;61.40
4570;BME280;2297;51.442;6.996;2023-07-02T00:14:45;99464.56;;;17.66;61.72
4570;BME280;2297;51.442;6.996;2023-07-02T00:17:12;99469.91;;;17.66;61.34
4570;BME280;2297;51.442;6.996;2023-07-02T00:19:46;99465.31;;;17.54;61.72
4570;BME280;2297;51.442;6.996;2023-07-02T00:22:16;99459.69;;;17.73;61.21
4570;BME280;2297;51.442;6.996;2023-07-02T00:24:43;99458.81;;;17.72;60.88
4570;BME280;2297;51.442;6.996;2023-07-02T00:27:10;99457.50;;;17.51;61.57
4570;BME280;2297;51.442;6.996;2023-07-02T00:29:36;99455.41;;;17.70;60.96
4570;BME280;2297;51.442;6.996;2023-07-02T00:32:04;99453.69;;;17.69;60.94
4570;BME280;2297;51.442;6.996;2023-07-02T00:34:31;99451.47;;;17.61;61.18
4570;BME280;2297;51.442;6.996;2023-07-02T00:36:59;99456.66;;;17.50;61.50
4570;BME280;2297;51.442;6.996;2023-07-02T00:39:25;99454.16;;;17.61;61.36
4570;BME280;2297;51.442;6.996;2023-07-02T00:41:52;99450.63;;;17.61;61.05
4570;BME280;2297;51.442;6.996;2023-07-02T00:44:19;99458.28;;;17.09;62.42
4570;BME280;2297;51.442;6.996;2023-07-02T00:46:45;99454.75;;;17.38;61.51
4570;BME280;2297;51.442;6.996;2023-07-02T00:49:12;99448.94;;;17.45;61.24
4570;BME280;2297;51.442;6.996;2023-07-02T00:51:39;99450.19;;;17.25;61.64
4570;BME280;2297;51.442;6.996;2023-07-02T00:54:07;99461.22;;;17.48;61.08
4570;BME280;2297;51.442;6.996;2023-07-02T00:56:34;99458.25;;;17.53;60.80
4570;BME280;2297;51.442;6.996;2023-07-02T00:59:01;99449.88;;;17.44;60.81
4570;BME280;2297;51.442;6.996;2023-07-02T01:01:27;99456.19;;;17.29;61.17
4570;BME280;2297;51.442;6.996;2023-07-02T01:03:57;99452.19;;;17.22;61.36
4570;BME280;2297;51.442;6.996;2023-07-02T01:06:26;99450.09;;;17.41;60.80
4570;BME280;2297;51.442;6.996;2023-07-02T01:08:57;99441.50;;;17.07;61.57
4570;BME280;2297;51.442;6.996;2023-07-02T01:11:27;99450.28;;;17.38;60.66
4570;BME280;2297;51.442;6.996;2023-07-02T01:13:59;99444.28;;;17.35;60.53
4570;BME280;2297;51.442;6.996;2023-07-02T01:16:29;99441.34;;;17.10;61.26
4570;BME280;2297;51.442;6.996;2023-07-02T01:18:59;99442.56;;;17.05;61.43
4570;BME280;2297;51.442;6.996;2023-07-02T01:21:31;99436.06;;;17.09;60.95
4570;BME280;2297;51.442;6.996;2023-07-02T01:23:59;99414.84;;;17.22;60.36
4570;BME280;2297;51.442;6.996;2023-07-02T01:26:28;99408.75;;;16.91;61.27
4570;BME280;2297;51.442;6.996;2023-07-02T01:28:55;99411.38;;;16.76;61.99
4570;BME280;2297;51.442;6.996;2023-07-02T01:31:22;99421.50;;;16.86;61.41
4570;BME280;2297;51.442;6.996;2023-07-02T01:33:51;99422.59;;;16.67;61.86
4570;BME280;2297;51.442;6.996;2023-07-02T01:36:17;99414.72;;;16.80;61.61
4570;BME280;2297;51.442;6.996;2023-07-02T01:38:45;99421.00;;;16.79;61.47
4570;BME280;2297;51.442;6.996;2023-07-02T01:41:12;99434.78;;;16.71;61.69
4570;BME280;2297;51.442;6.996;2023-07-02T01:43:38;99443.56;;;16.73;61.72
4570;BME280;2297;51.442;6.996;2023-07-02T01:46:05;99446.34;;;16.86;61.45
4570;BME280;2297;51.442;6.996;2023-07-02T01:48:31;99457.63;;;16.75;61.82
4570;BME280;2297;51.442;6.996;2023-07-02T01:50:58;99457.16;;;16.69;61.92
4570;BME280;2297;51.442;6.996;2023-07-02T01:53:25;99460.16;;;16.62;61.99
4570;BME280;2297;51.442;6.996;2023-07-02T01:55:53;99459.91;;;16.67;61.96
4570;BME280;2297;51.442;6.996;2023-07-02T01:58:19;99453.13;;;16.92;60.85
4570;BME280;2297;51.442;6.996;2023-07-02T02:00:47;99454.59;;;16.82;61.05
4570;BME280;2297;51.442;6.996;2023-07-02T02:03:14;99457.72;;;17.04;60.30
4570;BME280;2297;51.442;6.996;2023-07-02T02:05:41;99459.94;;;16.82;60.89
4570;BME280;2297;51.442;6.996;2023-07-02T02:08:07;99458.63;;;16.89;60.53
4570;BME280;2297;51.442;6.996;2023-07-02T02:10:34;99460.75;;;16.23;61.33
4570;BME280;2297;51.442;6.996;2023-07-02T02:13:02;99469.81;;;16.79;60.24
4570;BME280;2297;51.442;6.996;2023-07-02T02:15:29;99466.19;;;16.96;59.63
4570;BME280;2297;51.442;6.996;2023-07-02T02:17:55;99470.28;;;17.02;59.57
4570;BME280;2297;51.442;6.996;2023-07-02T02:20:23;99468.19;;;17.07;59.09
4570;BME280;2297;51.442;6.996;2023-07-02T02:22:49;99476.97;;;17.09;58.45
4570;BME280;2297;51.442;6.996;2023-07-02T02:25:16;99480.56;;;17.08;58.47
4570;BME280;2297;51.442;6.996;2023-07-02T02:27:43;99477.69;;;16.97;58.52
4570;BME280;2297;51.442;6.996;2023-07-02T02:30:11;99478.69;;;16.80;58.71
4570;BME280;2297;51.442;6.996;2023-07-02T02:32:37;99475.06;;;16.67;59.05
4570;BME280;2297;51.442;6.996;2023-07-02T02:35:05;99475.34;;;16.76;58.56
4570;BME280;2297;51.442;6.996;2023-07-02T02:37:33;99479.16;;;16.72;58.88
4570;BME280;2297;51.442;6.996;2023-07-02T02:40:00;99475.56;;;16.73;58.73
4570;BME280;2297;51.442;6.996;2023-07-02T02:42:26;99473.88;;;16.87;58.33
4570;BME280;2297;51.442;6.996;2023-07-02T02:44:53;99477.59;;;16.84;58.14
4570;BME280;2297;51.442;6.996;2023-07-02T02:47:21;99471.31;;;16.69;58.37
4570;BME280;2297;51.442;6.996;2023-07-02T02:49:47;99475.81;;;16.69;58.09
4570;BME280;2297;51.442;6.996;2023-07-02T02:52:14;99477.88;;;16.63;58.55
4570;BME280;2297;51.442;6.996;2023-07-02T02:54:41;99476.19;;;16.77;57.88
4570;BME280;2297;51.442;6.996;2023-07-02T02:57:07;99474.72;;;16.87;57.52
4570;BME280;2297;51.442;6.996;2023-07-02T02:59:34;99471.22;;;16.87;57.68
4570;BME280;2297;51.442;6.996;2023-07-02T03:02:00;99480.00;;;16.73;57.83
4570;BME280;2297;51.442;6.996;2023-07-02T03:04:28;99472.84;;;16.59;58.30
4570;BME280;2297;51.442;6.996;2023-07-02T03:06:55;99477.97;;;16.62;58.23
4570;BME280;2297;51.442;6.996;2023-07-02T03:09:22;99478.59;;;16.82;57.61
4570;BME280;2297;51.442;6.996;2023-07-02T03:11:48;99486.88;;;16.77;57.61
4570;BME280;2297;51.442;6.996;2023-07-02T03:14:15;99488.09;;;16.71;58.03
4570;BME280;2297;51.442;6.996;2023-07-02T03:16:42;99486.03;;;16.76;57.57
4570;BME280;2297;51.442;6.996;2023-07-02T03:19:10;99491.91;;;16.67;57.95
4570;BME280;2297;51.442;6.996;2023-07-02T03:21:41;99491.94;;;16.51;58.25
4570;BME280;2297;51.442;6.996;2023-07-02T03:24:08;99498.16;;;16.66;58.13
4570;BME280;2297;51.442;6.996;2023-07-02T03:26:37;99495.69;;;16.63;58.21
4570;BME280;2297;51.442;6.996;2023-07-02T03:29:03;99498.94;;;16.68;58.17
4570;BME280;2297;51.442;6.996;2023-07-02T03:31:30;99499.31;;;16.62;58.44
4570;BME280;2297;51.442;6.996;2023-07-02T03:33:56;99503.84;;;16.76;58.07
4570;BME280;2297;51.442;6.996;2023-07-02T03:36:56;99506.31;;;16.49;58.46
4570;BME280;2297;51.442;6.996;2023-07-02T03:39:22;99511.72;;;16.47;58.62
4570;BME280;2297;51.442;6.996;2023-07-02T03:41:49;99515.25;;;16.47;58.81
4570;BME280;2297;51.442;6.996;2023-07-02T03:44:15;99519.84;;;16.60;58.53
4570;BME280;2297;51.442;6.996;2023-07-02T03:46:42;99517.38;;;16.57;58.37
4570;BME280;2297;51.442;6.996;2023-07-02T03:49:09;99514.84;;;16.70;58.11
4570;BME280;2297;51.442;6.996;2023-07-02T03:51:35;99525.97;;;16.62;58.45
4570;BME280;2297;51.442;6.996;2023-07-02T03:54:05;99522.22;;;16.80;57.95
4570;BME280;2297;51.442;6.996;2023-07-02T03:56:31;99523.53;;;16.73;58.03
4570;BME280;2297;51.442;6.996;2023-07-02T03:58:58;99533.97;;;16.62;58.44
4570;BME280;2297;51.442;6.996;2023-07-02T04:01:25;99529.16;;;16.53;59.04
4570;BME280;2297;51.442;6.996;2023-07-02T04:03:52;99537.81;;;16.72;58.33
4570;BME280;2297;51.442;6.996;2023-07-02T04:06:19;99542.06;;;16.44;59.04
4570;BME280;2297;51.442;6.996;2023-07-02T04:08:46;99543.28;;;16.69;58.47
4570;BME280;2297;51.442;6.996;2023-07-02T04:11:14;99546.75;;;16.71;58.35
4570;BME280;2297;51.442;6.996;2023-07-02T04:13:40;99552.97;;;16.56;58.54
4570;BME280;2297;51.442;6.996;2023-07-02T04:16:07;99554.50;;;16.60;58.56
4570;BME280;2297;51.442;6.996;2023-07-02T04:18:34;99547.75;;;16.85;58.00
4570;BME280;2297;51.442;6.996;2023-07-02T04:21:01;99550.19;;;16.89;57.99
4570;BME280;2297;51.442;6.996;2023-07-02T04:23:27;99558.69;;;16.80;58.06
4570;BME280;2297;51.442;6.996;2023-07-02T04:25:54;99561.88;;;16.87;57.75
4570;BME280;2297;51.442;6.996;2023-07-02T04:28:22;99553.59;;;16.91;57.80
4570;BME280;2297;51.442;6.996;2023-07-02T04:30:49;99565.16;;;16.60;58.77
4570;BME280;2297;51.442;6.996;2023-07-02T04:33:17;99568.91;;;16.72;58.37
4570;BME280;2297;51.442;6.996;2023-07-02T04:35:44;99561.00;;;16.70;58.39
4570;BME280;2297;51.442;6.996;2023-07-02T04:38:11;99567.97;;;16.73;58.46
4570;BME280;2297;51.442;6.996;2023-07-02T04:40:38;99574.44;;;16.85;58.13
4570;BME280;2297;51.442;6.996;2023-07-02T04:43:07;99563.03;;;16.97;57.68
4570;BME280;2297;51.442;6.996;2023-07-02T04:45:34;99576.47;;;16.79;58.19
4570;BME280;2297;51.442;6.996;2023-07-02T04:48:02;99575.06;;;17.04;57.75
4570;BME280;2297;51.442;6.996;2023-07-02T04:50:28;99584.91;;;16.88;57.88
4570;BME280;2297;51.442;6.996;2023-07-02T04:52:55;99579.56;;;17.04;57.60
4570;BME280;2297;51.442;6.996;2023-07-02T04:55:22;99578.72;;;16.87;58.01
4570;BME280;2297;51.442;6.996;2023-07-02T04:57:48;99581.13;;;16.92;58.05
4570;BME280;2297;51.442;6.996;2023-07-02T05:00:26;99581.13;;;16.92;57.99
4570;BME280;2297;51.442;6.996;2023-07-02T05:02:54;99588.59;;;17.01;57.58
4570;BME280;2297;51.442;6.996;2023-07-02T05:05:21;99586.91;;;17.15;57.20
4570;BME280;2297;51.442;6.996;2023-07-02T05:07:47;99583.88;;;16.90;57.76
4570;BME280;2297;51.442;6.996;2023-07-02T05:10:14;99580.81;;;16.66;58.52
4570;BME280;2297;51.442;6.996;2023-07-02T05:12:41;99585.75;;;17.04;57.81
4570;BME280;2297;51.442;6.996;2023-07-02T05:15:08;99579.25;;;17.08;57.88
4570;BME280;2297;51.442;6.996;2023-07-02T05:17:37;99592.72;;;17.21;57.30
4570;BME280;2297;51.442;6.996;2023-07-02T05:20:07;99590.06;;;17.21;57.36
4570;BME280;2297;51.442;6.996;2023-07-02T05:22:33;99593.94;;;17.01;57.41
4570;BME280;2297;51.442;6.996;2023-07-02T05:25:00;99596.59;;;16.69;58.31
4570;BME280;2297;51.442;6.996;2023-07-02T05:27:27;99593.50;;;16.93;57.69
4570;BME280;2297;51.442;6.996;2023-07-02T05:29:53;99602.19;;;16.80;58.12
4570;BME280;2297;51.442;6.996;2023-07-02T05:32:20;99593.78;;;17.19;57.13
4570;BME280;2297;51.442;6.996;2023-07-02T05:34:46;99612.41;;;17.04;57.43
4570;BME280;2297;51.442;6.996;2023-07-02T05:37:14;99602.88;;;17.00;57.72
4570;BME280;2297;51.442;6.996;2023-07-02T05:39:41;99604.66;;;17.00;57.91
4570;BME280;2297;51.442;6.996;2023-07-02T05:42:08;99604.50;;;17.03;57.65
4570;BME280;2297;51.442;6.996;2023-07-02T05:44:34;99609.00;;;16.86;57.47
4570;BME280;2297;51.442;6.996;2023-07-02T05:47:01;99612.78;;;16.66;58.29
4570;BME280;2297;51.442;6.996;2023-07-02T05:49:27;99609.88;;;16.71;57.46
4570;BME280;2297;51.442;6.996;2023-07-02T05:52:04;99612.75;;;16.98;56.65
4570;BME280;2297;51.442;6.996;2023-07-02T05:54:32;99621.69;;;16.97;56.39
4570;BME280;2297;51.442;6.996;2023-07-02T05:56:58;99616.06;;;16.55;57.14
4570;BME280;2297;51.442;6.996;2023-07-02T05:59:25;99625.88;;;16.55;57.70
4570;BME280;2297;51.442;6.996;2023-07-02T06:01:51;99624.72;;;17.07;55.94
4570;BME280;2297;51.442;6.996;2023-07-02T06:04:18;99634.72;;;17.18;55.47
4570;BME280;2297;51.442;6.996;2023-07-02T06:06:44;99629.81;;;17.40;54.84
4570;BME280;2297;51.442;6.996;2023-07-02T06:09:11;99636.63;;;17.16;55.06
4570;BME280;2297;51.442;6.996;2023-07-02T06:11:39;99632.47;;;17.26;54.03
4570;BME280;2297;51.442;6.996;2023-07-02T06:14:06;99630.03;;;17.37;53.95
4570;BME280;2297;51.442;6.996;2023-07-02T06:16:32;99641.66;;;17.36;53.30
4570;BME280;2297;51.442;6.996;2023-07-02T06:18:59;99642.88;;;17.75;51.98
4570;BME280;2297;51.442;6.996;2023-07-02T06:21:26;99646.03;;;17.37;51.68
4570;BME280;2297;51.442;6.996;2023-07-02T06:23:55;99640.06;;;17.48;51.50
4570;BME280;2297;51.442;6.996;2023-07-02T06:26:22;99645.66;;;17.43;50.60
4570;BME280;2297;51.442;6.996;2023-07-02T06:28:50;99640.50;;;17.40;50.20
4570;BME280;2297;51.442;6.996;2023-07-02T06:31:16;99643.81;;;17.29;48.29
4570;BME280;2297;51.442;6.996;2023-07-02T06:33:43;99643.06;;;17.42;47.75
4570;BME280;2297;51.442;6.996;2023-07-02T06:36:10;99649.97;;;17.16;48.69
4570;BME280;2297;51.442;6.996;2023-07-02T06:38:37;99649.38;;;17.55;47.81
4570;BME280;2297;51.442;6.996;2023-07-02T06:41:04;99650.69;;;17.78;46.40
4570;BME280;2297;51.442;6.996;2023-07-02T06:43:31;99658.94;;;17.15;46.04
4570;BME280;2297;51.442;6.996;2023-07-02T06:45:58;99649.16;;;16.99;46.92
4570;BME280;2297;51.442;6.996;2023-07-02T06:48:25;99661.59;;;17.15;46.84
4570;BME280;2297;51.442;6.996;2023-07-02T06:50:52;99658.59;;;17.35;46.23
4570;BME280;2297;51.442;6.996;2023-07-02T06:53:18;99653.94;;;17.39;45.58
4570;BME280;2297;51.442;6.996;2023-07-02T06:55:45;99657.09;;;17.76;44.71
4570;BME280;2297;51.442;6.996;2023-07-02T06:58:11;99662.22;;;17.34;44.98
4570;BME280;2297;51.442;6.996;2023-07-02T07:00:38;99665.84;;;17.33;44.08
4570;BME280;2297;51.442;6.996;2023-07-02T07:03:06;99657.66;;;17.67;44.05
4570;BME280;2297;51.442;6.996;2023-07-02T07:05:32;99665.34;;;17.57;44.34
4570;BME280;2297;51.442;6.996;2023-07-02T07:07:59;99675.47;;;17.81;43.53
4570;BME280;2297;51.442;6.996;2023-07-02T07:10:27;99675.97;;;18.16;43.17
4570;BME280;2297;51.442;6.996;2023-07-02T07:12:53;99668.63;;;17.76;42.97
4570;BME280;2297;51.442;6.996;2023-07-02T07:15:20;99671.88;;;18.10;42.80
4570;BME280;2297;51.442;6.996;2023-07-02T07:17:46;99676.63;;;17.91;42.91
4570;BME280;2297;51.442;6.996;2023-07-02T07:20:15;99674.75;;;17.93;43.31
4570;BME280;2297;51.442;6.996;2023-07-02T07:22:42;99678.56;;;18.03;43.56
4570;BME280;2297;51.442;6.996;2023-07-02T07:25:08;99673.97;;;18.20;43.14
4570;BME280;2297;51.442;6.996;2023-07-02T07:27:36;99685.34;;;17.94;43.41
4570;BME280;2297;51.442;6.996;2023-07-02T07:30:03;99679.84;;;17.67;43.33
4570;BME280;2297;51.442;6.996;2023-07-02T07:32:30;99683.03;;;17.88;43.34
4570;BME280;2297;51.442;6.996;2023-07-02T07:34:56;99686.16;;;17.81;43.84
4570;BME280;2297;51.442;6.996;2023-07-02T07:37:24;99687.06;;;18.10;43.13
4570;BME280;2297;51.442;6.996;2023-07-02T07:39:51;99688.28;;;17.90;42.26
4570;BME280;2297;51.442;6.996;2023-07-02T07:42:18;99687.81;;;17.69;42.31
4570;BME280;2297;51.442;6.996;2023-07-02T07:48:06;99700.59;;;18.21;41.77
4570;BME280;2297;51.442;6.996;2023-07-02T07:50:33;99699.16;;;18.01;40.41
4570;BME280;2297;51.442;6.996;2023-07-02T07:53:01;99693.16;;;18.26;39.89
4570;BME280;2297;51.442;6.996;2023-07-02T07:55:27;99706.16;;;18.47;39.48
4570;BME280;2297;51.442;6.996;2023-07-02T07:57:54;99696.69;;;18.12;39.35
4570;BME280;2297;51.442;6.996;2023-07-02T08:00:20;99711.59;;;18.31;39.30
4570;BME280;2297;51.442;6.996;2023-07-02T08:02:49;99714.31;;;18.29;38.38
4570;BME280;2297;51.442;6.996;2023-07-02T08:05:17;99710.81;;;18.15;37.61
4570;BME280;2297;51.442;6.996;2023-07-02T08:07:44;99717.28;;;18.10;37.46
4570;BME280;2297;51.442;6.996;2023-07-02T08:10:12;99710.13;;;18.11;37.88
4570;BME280;2297;51.442;6.996;2023-07-02T08:12:39;99716.53;;;18.52;37.95
4570;BME280;2297;51.442;6.996;2023-07-02T08:15:06;99713.09;;;18.21;38.24
4570;BME280;2297;51.442;6.996;2023-07-02T08:17:33;99710.81;;;18.15;37.96
4570;BME280;2297;51.442;6.996;2023-07-02T08:20:01;99724.19;;;18.58;37.70
4570;BME280;2297;51.442;6.996;2023-07-02T08:22:29;99722.69;;;18.81;36.80
4570;BME280;2297;51.442;6.996;2023-07-02T08:24:56;99720.56;;;18.44;37.52
4570;BME280;2297;51.442;6.996;2023-07-02T08:27:24;99734.69;;;19.03;36.71
4570;BME280;2297;51.442;6.996;2023-07-02T08:29:51;99729.47;;;18.87;35.95
4570;BME280;2297;51.442;6.996;2023-07-02T08:32:18;99734.97;;;18.56;34.84
4570;BME280;2297;51.442;6.996;2023-07-02T08:34:44;99748.41;;;18.55;34.61
4570;BME280;2297;51.442;6.996;2023-07-02T08:37:11;99746.50;;;18.42;34.32
4570;BME280;2297;51.442;6.996;2023-07-02T08:39:37;99747.81;;;17.92;34.39
4570;BME280;2297;51.442;6.996;2023-07-02T08:42:05;99748.78;;;18.34;33.13
4570;BME280;2297;51.442;6.996;2023-07-02T08:44:33;99744.50;;;18.32;32.92
4570;BME280;2297;51.442;6.996;2023-07-02T08:47:00;99741.16;;;18.28;34.49
4570;BME280;2297;51.442;6.996;2023-07-02T08:49:27;99756.59;;;18.23;34.35
4570;BME280;2297;51.442;6.996;2023-07-02T08:51:54;99737.72;;;18.40;34.77
4570;BME280;2297;51.442;6.996;2023-07-02T08:54:21;99739.91;;;17.90;35.43
4570;BME280;2297;51.442;6.996;2023-07-02T08:56:47;99745.28;;;18.19;34.25
4570;BME280;2297;51.442;6.996;2023-07-02T08:59:14;99739.84;;;18.35;34.16
4570;BME280;2297;51.442;6.996;2023-07-02T09:01:49;99741.13;;;18.86;33.52
4570;BME280;2297;51.442;6.996;2023-07-02T09:04:17;99748.22;;;18.72;33.19
4570;BME280;2297;51.442;6.996;2023-07-02T09:06:44;99759.78;;;18.44;33.36
4570;BME280;2297;51.442;6.996;2023-07-02T09:09:11;99761.38;;;18.03;33.49
4570;BME280;2297;51.442;6.996;2023-07-02T09:11:46;99768.41;;;18.04;33.75
4570;BME280;2297;51.442;6.996;2023-07-02T09:14:23;99762.22;;;18.04;34.34
4570;BME280;2297;51.442;6.996;2023-07-02T09:17:01;99757.97;;;18.30;33.94
4570;BME280;2297;51.442;6.996;2023-07-02T09:19:28;99762.19;;;18.49;34.33
4570;BME280;2297;51.442;6.996;2023-07-02T09:21:57;99757.19;;;18.71;33.74
4570;BME280;2297;51.442;6.996;2023-07-02T09:24:25;99757.81;;;18.89;34.02
4570;BME280;2297;51.442;6.996;2023-07-02T09:26:52;99754.75;;;18.54;34.59
4570;BME280;2297;51.442;6.996;2023-07-02T09:29:21;99761.22;;;18.35;34.90
4570;BME280;2297;51.442;6.996;2023-07-02T09:31:48;99746.16;;;18.90;34.58
4570;BME280;2297;51.442;6.996;2023-07-02T09:34:16;99739.44;;;19.12;34.60
4570;BME280;2297;51.442;6.996;2023-07-02T09:36:43;99749.22;;;19.53;34.53
4570;BME280;2297;51.442;6.996;2023-07-02T09:39:12;99748.81;;;19.72;34.08
4570;BME280;2297;51.442;6.996;2023-07-02T09:41:40;99740.16;;;19.82;33.63
4570;BME280;2297;51.442;6.996;2023-07-02T09:44:07;99733.88;;;20.08;33.29
4570;BME280;2297;51.442;6.996;2023-07-02T09:46:37;99746.50;;;20.19;33.16
4570;BME280;2297;51.442;6.996;2023-07-02T09:49:05;99736.56;;;20.34;33.09
4570;BME280;2297;51.442;6.996;2023-07-02T09:51:34;99759.28;;;20.16;33.05
4570;BME280;2297;51.442;6.996;2023-07-02T09:54:01;99755.81;;;19.88;33.40
4570;BME280;2297;51.442;6.996;2023-07-02T09:56:28;99755.38;;;19.28;33.72
4570;BME280;2297;51.442;6.996;2023-07-02T09:58:54;99755.22;;;19.02;34.42
4570;BME280;2297;51.442;6.996;2023-07-02T10:01:21;99744.56;;;19.42;33.98
4570;BME280;2297;51.442;6.996;2023-07-02T10:03:48;99756.44;;;19.38;34.54
4570;BME280;2297;51.442;6.996;2023-07-02T10:06:15;99757.31;;;19.39;34.90
4570;BME280;2297;51.442;6.996;2023-07-02T10:08:53;99762.31;;;19.71;34.67
4570;BME280;2297;51.442;6.996;2023-07-02T10:11:20;99769.41;;;19.85;34.87
4570;BME280;2297;51.442;6.996;2023-07-02T10:13:57;99778.72;;;19.79;34.78
4570;BME280;2297;51.442;6.996;2023-07-02T10:16:24;99781.81;;;19.18;35.75
4570;BME280;2297;51.442;6.996;2023-07-02T10:18:52;99782.09;;;19.55;34.84
4570;BME280;2297;51.442;6.996;2023-07-02T10:21:19;99783.75;;;19.31;34.54
4570;BME280;2297;51.442;6.996;2023-07-02T10:23:46;99782.53;;;19.22;34.30
4570;BME280;2297;51.442;6.996;2023-07-02T10:26:16;99785.34;;;19.33;34.05
4570;BME280;2297;51.442;6.996;2023-07-02T10:28:55;99790.44;;;18.82;33.56
4570;BME280;2297;51.442;6.996;2023-07-02T10:31:22;99787.19;;;18.48;33.87
4570;BME280;2297;51.442;6.996;2023-07-02T10:33:51;99788.78;;;18.93;33.57
4570;BME280;2297;51.442;6.996;2023-07-02T10:36:18;99782.56;;;18.93;33.57
4570;BME280;2297;51.442;6.996;2023-07-02T10:38:46;99778.28;;;19.32;33.00
4570;BME280;2297;51.442;6.996;2023-07-02T10:41:24;99786.66;;;19.40;32.80
4570;BME280;2297;51.442;6.996;2023-07-02T10:43:51;99771.13;;;19.86;31.84
4570;BME280;2297;51.442;6.996;2023-07-02T10:46:19;99769.03;;;20.42;30.99
4570;BME280;2297;51.442;6.996;2023-07-02T10:48:51;99778.25;;;20.00;31.36
4570;BME280;2297;51.442;6.996;2023-07-02T10:51:17;99765.63;;;20.15;31.38
4570;BME280;2297;51.442;6.996;2023-07-02T10:53:44;99771.28;;;20.36;30.88
4570;BME280;2297;51.442;6.996;2023-07-02T10:56:15;99777.19;;;20.28;31.21
4570;BME280;2297;51.442;6.996;2023-07-02T10:58:43;99773.09;;;20.35;31.13
4570;BME280;2297;51.442;6.996;2023-07-02T11:01:11;99767.56;;;20.88;30.53
4570;BME280;2297;51.442;6.996;2023-07-02T11:03:38;99775.44;;;20.78;30.98
4570;BME280;2297;51.442;6.996;2023-07-02T11:06:05;99802.19;;;20.67;30.90
4570;BME280;2297;51.442;6.996;2023-07-02T11:08:35;99786.84;;;20.18;31.38
4570;BME280;2297;51.442;6.996;2023-07-02T11:11:08;99775.78;;;20.35;31.49
4570;BME280;2297;51.442;6.996;2023-07-02T11:13:45;99790.69;;;20.14;32.06
4570;BME280;2297;51.442;6.996;2023-07-02T11:16:20;99789.19;;;20.09;31.63
4570;BME280;2297;51.442;6.996;2023-07-02T11:18:49;99793.03;;;20.31;31.43
4570;BME280;2297;51.442;6.996;2023-07-02T11:21:16;99779.84;;;20.54;31.49
4570;BME280;2297;51.442;6.996;2023-07-02T11:23:43;99786.06;;;20.41;31.42
4570;BME280;2297;51.442;6.996;2023-07-02T11:26:09;99798.53;;;20.68;31.40
4570;BME280;2297;51.442;6.996;2023-07-02T11:28:36;99796.72;;;20.69;31.32
4570;BME280;2297;51.442;6.996;2023-07-02T11:31:04;99794.78;;;20.06;31.90
4570;BME280;2297;51.442;6.996;2023-07-02T11:33:34;99791.56;;;20.27;31.65
4570;BME280;2297;51.442;6.996;2023-07-02T11:36:01;99795.00;;;20.29;30.31
4570;BME280;2297;51.442;6.996;2023-07-02T11:38:27;99787.91;;;20.28;30.21
4570;BME280;2297;51.442;6.996;2023-07-02T11:40:54;99780.19;;;19.98;29.80
4570;BME280;2297;51.442;6.996;2023-07-02T11:43:20;99790.28;;;20.71;29.32
4570;BME280;2297;51.442;6.996;2023-07-02T11:45:47;99791.78;;;20.24;30.02
4570;BME280;2297;51.442;6.996;2023-07-02T11:48:15;99782.44;;;20.42;29.30
4570;BME280;2297;51.442;6.996;2023-07-02T11:50:42;99785.91;;;19.78;29.67
4570;BME280;2297;51.442;6.996;2023-07-02T11:53:08;99785.56;;;20.10;29.77
4570;BME280;2297;51.442;6.996;2023-07-02T11:55:36;99787.91;;;20.28;28.68
4570;BME280;2297;51.442;6.996;2023-07-02T11:58:03;99777.97;;;20.93;28.34
4570;BME280;2297;51.442;6.996;2023-07-02T12:00:29;99782.91;;;20.99;28.49
4570;BME280;2297;51.442;6.996;2023-07-02T12:02:56;99784.69;;;20.74;27.83
4570;BME280;2297;51.442;6.996;2023-07-02T12:05:24;99785.34;;;20.39;28.15
4570;BME280;2297;51.442;6.996;2023-07-02T12:07:50;99784.25;;;20.55;27.91
4570;BME280;2297;51.442;6.996;2023-07-02T12:10:18;99786.63;;;20.47;28.29
4570;BME280;2297;51.442;6.996;2023-07-02T12:12:44;99789.41;;;20.58;28.22
4570;BME280;2297;51.442;6.996;2023-07-02T12:15:11;99792.19;;;20.43;28.54
4570;BME280;2297;51.442;6.996;2023-07-02T12:17:37;99795.41;;;20.23;29.15
4570;BME280;2297;51.442;6.996;2023-07-02T12:20:05;99798.63;;;20.67;29.06
4570;BME280;2297;51.442;6.996;2023-07-02T12:22:33;99802.91;;;20.69;29.27
4570;BME280;2297;51.442;6.996;2023-07-02T12:24:59;99791.69;;;21.01;28.96
4570;BME280;2297;51.442;6.996;2023-07-02T12:27:26;99797.34;;;20.59;29.55
4570;BME280;2297;51.442;6.996;2023-07-02T12:29:53;99806.56;;;20.68;29.48
4570;BME280;2297;51.442;6.996;2023-07-02T12:32:20;99799.16;;;20.72;29.47
4570;BME280;2297;51.442;6.996;2023-07-02T12:34:47;99802.66;;;20.98;29.43
4570;BME280;2297;51.442;6.996;2023-07-02T12:37:13;99806.13;;;20.87;29.69
4570;BME280;2297;51.442;6.996;2023-07-02T12:39:44;99803.72;;;20.96;30.05
4570;BME280;2297;51.442;6.996;2023-07-02T12:42:10;99797.81;;;21.03;29.22
4570;BME280;2297;51.442;6.996;2023-07-02T12:44:37;99812.56;;;20.85;29.98
4570;BME280;2297;51.442;6.996;2023-07-02T12:47:04;99804.03;;;21.41;28.89
4570;BME280;2297;51.442;6.996;2023-07-02T12:49:31;99799.09;;;21.35;28.53
4570;BME280;2297;51.442;6.996;2023-07-02T12:51:57;99795.34;;;21.62;28.85
4570;BME280;2297;51.442;6.996;2023-07-02T12:54:24;99802.69;;;21.47;28.64
4570;BME280;2297;51.442;6.996;2023-07-02T12:56:53;99804.19;;;21.75;28.50
4570;BME280;2297;51.442;6.996;2023-07-02T12:59:19;99812.34;;;21.49;29.07
4570;BME280;2297;51.442;6.996;2023-07-02T13:01:46;99795.38;;;20.87;30.36
4570;BME280;2297;51.442;6.996;2023-07-02T13:04:13;99803.19;;;21.27;29.78
4570;BME280;2297;51.442;6.996;2023-07-02T13:06:40;99805.34;;;21.35;29.60
4570;BME280;2297;51.442;6.996;2023-07-02T13:09:07;99804.91;;;21.41;29.61
4570;BME280;2297;51.442;6.996;2023-07-02T13:11:34;99803.91;;;21.05;29.83
4570;BME280;2297;51.442;6.996;2023-07-02T13:14:02;99811.84;;;21.44;29.64
4570;BME280;2297;51.442;6.996;2023-07-02T13:16:29;99805.97;;;21.39;30.00
4570;BME280;2297;51.442;6.996;2023-07-02T13:18:56;99803.28;;;21.99;28.95
4570;BME280;2297;51.442;6.996;2023-07-02T13:21:22;99808.13;;;22.29;28.70
4570;BME280;2297;51.442;6.996;2023-07-02T13:23:49;99814.56;;;21.80;29.65
4570;BME280;2297;51.442;6.996;2023-07-02T13:26:16;99806.16;;;22.20;28.91